sensor_id;sensor_type;location;lat;lon;timestamp;P1;durP1;ratioP1;P2;durP2;ratioP2
69627;SDS011;56850;51.984;5.088;2023-02-22T00:01:33;45.90;;;20.75;;
69627;SDS011;56850;51.984;5.088;2023-02-22T00:04:04;46.70;;;21.35;;
69627;SDS011;56850;51.984;5.088;2023-02-22T00:06:32;44.78;;;20.25;;
69627;SDS011;56850;51.984;5.088;2023-02-22T00:08:59;44.38;;;21.17;;
69627;SDS011;56850;51.984;5.088;2023-02-22T00:11:28;43.87;;;19.87;;
69627;SDS011;56850;51.984;5.088;2023-02-22T00:13:56;43.90;;;20.50;;
69627;SDS011;56850;51.984;5.088;2023-02-22T00:16:24;40.58;;;19.15;;
69627;SDS011;56850;51.984;5.088;2023-02-22T00:18:51;44.28;;;21.33;;
69627;SDS011;56850;51.984;5.088;2023-02-22T00:21:19;45.42;;;20.33;;
69627;SDS011;56850;51.984;5.088;2023-02-22T00:23:47;45.30;;;20.53;;
69627;SDS011;56850;51.984;5.088;2023-02-22T00:26:18;41.95;;;19.73;;
69627;SDS011;56850;51.984;5.088;2023-02-22T00:28:47;42.78;;;20.40;;
69627;SDS011;56850;51.984;5.088;2023-02-22T00:31:19;40.15;;;19.90;;
69627;SDS011;56850;51.984;5.088;2023-02-22T00:33:47;40.92;;;19.27;;
69627;SDS011;56850;51.984;5.088;2023-02-22T00:36:15;41.97;;;18.47;;
69627;SDS011;56850;51.984;5.088;2023-02-22T00:38:42;44.33;;;20.10;;
69627;SDS011;56850;51.984;5.088;2023-02-22T00:41:10;44.75;;;20.90;;
69627;SDS011;56850;51.984;5.088;2023-02-22T00:43:37;36.90;;;16.77;;
69627;SDS011;56850;51.984;5.088;2023-02-22T00:46:04;40.30;;;19.30;;
69627;SDS011;56850;51.984;5.088;2023-02-22T00:48:31;43.77;;;20.53;;
69627;SDS011;56850;51.984;5.088;2023-02-22T00:50:58;45.38;;;19.35;;
69627;SDS011;56850;51.984;5.088;2023-02-22T00:53:25;47.90;;;20.42;;
69627;SDS011;56850;51.984;5.088;2023-02-22T00:55:52;42.72;;;19.67;;
69627;SDS011;56850;51.984;5.088;2023-02-22T00:58:20;44.30;;;19.67;;
69627;SDS011;56850;51.984;5.088;2023-02-22T01:00:48;41.30;;;19.13;;
69627;SDS011;56850;51.984;5.088;2023-02-22T01:03:16;40.53;;;17.08;;
69627;SDS011;56850;51.984;5.088;2023-02-22T01:05:45;38.28;;;16.45;;
69627;SDS011;56850;51.984;5.088;2023-02-22T01:08:15;43.47;;;20.67;;
69627;SDS011;56850;51.984;5.088;2023-02-22T01:10:43;43.75;;;19.60;;
69627;SDS011;56850;51.984;5.088;2023-02-22T01:13:10;40.27;;;18.70;;
69627;SDS011;56850;51.984;5.088;2023-02-22T01:15:40;41.50;;;19.10;;
69627;SDS011;56850;51.984;5.088;2023-02-22T01:18:08;43.03;;;19.73;;
69627;SDS011;56850;51.984;5.088;2023-02-22T01:20:46;43.47;;;19.25;;
69627;SDS011;56850;51.984;5.088;2023-02-22T01:23:14;38.28;;;18.60;;
69627;SDS011;56850;51.984;5.088;2023-02-22T01:25:42;41.97;;;19.23;;
69627;SDS011;56850;51.984;5.088;2023-02-22T01:28:12;42.50;;;18.55;;
69627;SDS011;56850;51.984;5.088;2023-02-22T01:30:39;41.58;;;19.73;;
69627;SDS011;56850;51.984;5.088;2023-02-22T01:33:06;40.30;;;19.13;;
69627;SDS011;56850;51.984;5.088;2023-02-22T01:35:34;42.75;;;19.67;;
69627;SDS011;56850;51.984;5.088;2023-02-22T01:38:04;36.27;;;17.03;;
69627;SDS011;56850;51.984;5.088;2023-02-22T01:40:33;41.75;;;20.27;;
69627;SDS011;56850;51.984;5.088;2023-02-22T01:43:03;34.92;;;15.25;;
69627;SDS011;56850;51.984;5.088;2023-02-22T01:45:43;38.05;;;18.65;;
69627;SDS011;56850;51.984;5.088;2023-02-22T01:48:30;37.55;;;18.77;;
69627;SDS011;56850;51.984;5.088;2023-02-22T01:53:38;40.63;;;18.20;;
69627;SDS011;56850;51.984;5.088;2023-02-22T01:56:18;38.80;;;19.25;;
69627;SDS011;56850;51.984;5.088;2023-02-22T01:58:48;38.83;;;18.27;;
69627;SDS011;56850;51.984;5.088;2023-02-22T02:01:19;40.67;;;18.67;;
69627;SDS011;56850;51.984;5.088;2023-02-22T02:03:48;41.00;;;19.23;;
69627;SDS011;56850;51.984;5.088;2023-02-22T02:06:17;38.58;;;17.13;;
69627;SDS011;56850;51.984;5.088;2023-02-22T02:08:48;38.35;;;19.02;;
69627;SDS011;56850;51.984;5.088;2023-02-22T02:11:28;37.92;;;18.63;;
69627;SDS011;56850;51.984;5.088;2023-02-22T02:13:58;40.40;;;19.95;;
69627;SDS011;56850;51.984;5.088;2023-02-22T02:16:30;42.57;;;18.43;;
69627;SDS011;56850;51.984;5.088;2023-02-22T02:22:33;35.97;;;16.67;;
69627;SDS011;56850;51.984;5.088;2023-02-22T02:31:34;38.83;;;18.10;;
69627;SDS011;56850;51.984;5.088;2023-02-22T02:37:23;45.58;;;20.25;;
69627;SDS011;56850;51.984;5.088;2023-02-22T02:42:52;44.25;;;19.10;;
69627;SDS011;56850;51.984;5.088;2023-02-22T02:45:48;40.73;;;18.77;;
69627;SDS011;56850;51.984;5.088;2023-02-22T02:48:22;38.20;;;18.05;;
69627;SDS011;56850;51.984;5.088;2023-02-22T02:50:52;43.80;;;20.48;;
69627;SDS011;56850;51.984;5.088;2023-02-22T02:53:30;41.75;;;17.77;;
69627;SDS011;56850;51.984;5.088;2023-02-22T02:56:01;48.47;;;18.90;;
69627;SDS011;56850;51.984;5.088;2023-02-22T02:58:29;44.37;;;19.60;;
69627;SDS011;56850;51.984;5.088;2023-02-22T03:00:57;42.67;;;19.35;;
69627;SDS011;56850;51.984;5.088;2023-02-22T03:15:24;47.28;;;21.40;;
69627;SDS011;56850;51.984;5.088;2023-02-22T03:18:08;47.17;;;20.38;;
69627;SDS011;56850;51.984;5.088;2023-02-22T03:23:51;44.42;;;21.35;;
69627;SDS011;56850;51.984;5.088;2023-02-22T03:26:38;51.57;;;21.43;;
69627;SDS011;56850;51.984;5.088;2023-02-22T03:29:08;47.05;;;20.00;;
69627;SDS011;56850;51.984;5.088;2023-02-22T03:31:39;50.97;;;21.38;;
69627;SDS011;56850;51.984;5.088;2023-02-22T03:34:12;48.70;;;19.42;;
69627;SDS011;56850;51.984;5.088;2023-02-22T03:36:54;55.70;;;22.95;;
69627;SDS011;56850;51.984;5.088;2023-02-22T03:39:24;48.77;;;20.00;;
69627;SDS011;56850;51.984;5.088;2023-02-22T03:42:01;53.08;;;21.95;;
69627;SDS011;56850;51.984;5.088;2023-02-22T03:44:35;58.45;;;21.58;;
69627;SDS011;56850;51.984;5.088;2023-02-22T03:47:07;48.72;;;19.98;;
69627;SDS011;56850;51.984;5.088;2023-02-22T03:49:43;52.33;;;21.02;;
69627;SDS011;56850;51.984;5.088;2023-02-22T03:52:17;48.10;;;19.40;;
69627;SDS011;56850;51.984;5.088;2023-02-22T03:54:45;53.67;;;21.77;;
69627;SDS011;56850;51.984;5.088;2023-02-22T03:57:16;52.90;;;21.42;;
69627;SDS011;56850;51.984;5.088;2023-02-22T04:00:01;56.20;;;22.67;;
69627;SDS011;56850;51.984;5.088;2023-02-22T04:02:38;52.53;;;21.38;;
69627;SDS011;56850;51.984;5.088;2023-02-22T04:05:08;53.67;;;19.67;;
69627;SDS011;56850;51.984;5.088;2023-02-22T04:07:35;71.40;;;21.42;;
69627;SDS011;56850;51.984;5.088;2023-02-22T04:10:02;59.63;;;20.40;;
69627;SDS011;56850;51.984;5.088;2023-02-22T04:12:29;52.15;;;21.35;;
69627;SDS011;56850;51.984;5.088;2023-02-22T04:15:02;60.25;;;21.92;;
69627;SDS011;56850;51.984;5.088;2023-02-22T04:17:31;62.40;;;23.57;;
69627;SDS011;56850;51.984;5.088;2023-02-22T04:20:00;58.03;;;23.17;;
69627;SDS011;56850;51.984;5.088;2023-02-22T04:22:39;58.38;;;24.50;;
69627;SDS011;56850;51.984;5.088;2023-02-22T04:25:06;63.45;;;22.45;;
69627;SDS011;56850;51.984;5.088;2023-02-22T04:27:34;64.15;;;23.67;;
69627;SDS011;56850;51.984;5.088;2023-02-22T04:30:01;67.00;;;24.80;;
69627;SDS011;56850;51.984;5.088;2023-02-22T04:32:30;79.82;;;23.58;;
69627;SDS011;56850;51.984;5.088;2023-02-22T04:34:57;62.45;;;22.42;;
69627;SDS011;56850;51.984;5.088;2023-02-22T04:37:26;49.35;;;20.17;;
69627;SDS011;56850;51.984;5.088;2023-02-22T04:39:54;55.97;;;21.95;;
69627;SDS011;56850;51.984;5.088;2023-02-22T04:42:20;65.33;;;21.87;;
69627;SDS011;56850;51.984;5.088;2023-02-22T04:44:48;67.78;;;22.17;;
69627;SDS011;56850;51.984;5.088;2023-02-22T04:47:15;92.07;;;20.88;;
69627;SDS011;56850;51.984;5.088;2023-02-22T04:49:42;96.05;;;21.90;;
69627;SDS011;56850;51.984;5.088;2023-02-22T04:52:11;65.43;;;22.25;;
69627;SDS011;56850;51.984;5.088;2023-02-22T04:54:38;61.03;;;21.33;;
69627;SDS011;56850;51.984;5.088;2023-02-22T04:57:05;70.05;;;22.60;;
69627;SDS011;56850;51.984;5.088;2023-02-22T04:59:32;71.60;;;21.30;;
69627;SDS011;56850;51.984;5.088;2023-02-22T05:02:00;73.07;;;21.58;;
69627;SDS011;56850;51.984;5.088;2023-02-22T05:04:28;77.18;;;19.85;;
69627;SDS011;56850;51.984;5.088;2023-02-22T05:06:55;184.97;;;20.63;;
69627;SDS011;56850;51.984;5.088;2023-02-22T05:09:22;166.55;;;21.75;;
69627;SDS011;56850;51.984;5.088;2023-02-22T05:11:49;111.18;;;19.38;;
69627;SDS011;56850;51.984;5.088;2023-02-22T05:14:16;78.50;;;20.48;;
69627;SDS011;56850;51.984;5.088;2023-02-22T05:16:43;61.40;;;20.35;;
69627;SDS011;56850;51.984;5.088;2023-02-22T05:19:10;131.83;;;18.43;;
69627;SDS011;56850;51.984;5.088;2023-02-22T05:21:37;78.60;;;20.20;;
69627;SDS011;56850;51.984;5.088;2023-02-22T05:24:05;139.43;;;22.27;;
69627;SDS011;56850;51.984;5.088;2023-02-22T05:26:32;125.93;;;21.27;;
69627;SDS011;56850;51.984;5.088;2023-02-22T05:29:00;93.75;;;18.35;;
69627;SDS011;56850;51.984;5.088;2023-02-22T05:31:27;83.87;;;20.17;;
69627;SDS011;56850;51.984;5.088;2023-02-22T05:33:54;135.93;;;22.13;;
69627;SDS011;56850;51.984;5.088;2023-02-22T05:36:21;86.18;;;19.52;;
69627;SDS011;56850;51.984;5.088;2023-02-22T05:38:47;106.07;;;21.30;;
69627;SDS011;56850;51.984;5.088;2023-02-22T05:41:14;124.95;;;19.55;;
69627;SDS011;56850;51.984;5.088;2023-02-22T05:43:42;100.70;;;16.87;;
69627;SDS011;56850;51.984;5.088;2023-02-22T05:46:09;71.95;;;13.80;;
69627;SDS011;56850;51.984;5.088;2023-02-22T05:48:36;207.73;;;21.75;;
69627;SDS011;56850;51.984;5.088;2023-02-22T05:51:03;113.50;;;20.65;;
69627;SDS011;56850;51.984;5.088;2023-02-22T05:53:30;79.32;;;19.20;;
69627;SDS011;56850;51.984;5.088;2023-02-22T05:55:57;58.50;;;18.10;;
69627;SDS011;56850;51.984;5.088;2023-02-22T05:58:24;164.93;;;20.25;;
69627;SDS011;56850;51.984;5.088;2023-02-22T06:00:51;126.60;;;18.30;;
69627;SDS011;56850;51.984;5.088;2023-02-22T06:03:18;189.82;;;19.38;;
69627;SDS011;56850;51.984;5.088;2023-02-22T06:05:45;60.58;;;19.10;;
69627;SDS011;56850;51.984;5.088;2023-02-22T06:08:12;78.40;;;17.67;;
69627;SDS011;56850;51.984;5.088;2023-02-22T06:10:38;135.38;;;18.75;;
69627;SDS011;56850;51.984;5.088;2023-02-22T06:13:06;61.13;;;15.23;;
69627;SDS011;56850;51.984;5.088;2023-02-22T06:15:32;147.45;;;19.50;;
69627;SDS011;56850;51.984;5.088;2023-02-22T06:17:59;134.00;;;19.38;;
69627;SDS011;56850;51.984;5.088;2023-02-22T06:20:28;117.27;;;17.73;;
69627;SDS011;56850;51.984;5.088;2023-02-22T06:22:56;66.07;;;18.10;;
69627;SDS011;56850;51.984;5.088;2023-02-22T06:25:27;105.90;;;21.65;;
69627;SDS011;56850;51.984;5.088;2023-02-22T06:27:59;176.10;;;20.80;;
69627;SDS011;56850;51.984;5.088;2023-02-22T06:30:26;81.32;;;19.58;;
69627;SDS011;56850;51.984;5.088;2023-02-22T06:32:54;76.57;;;18.43;;
69627;SDS011;56850;51.984;5.088;2023-02-22T06:35:21;103.97;;;20.92;;
69627;SDS011;56850;51.984;5.088;2023-02-22T06:37:48;80.97;;;19.00;;
69627;SDS011;56850;51.984;5.088;2023-02-22T06:40:15;111.38;;;19.95;;
69627;SDS011;56850;51.984;5.088;2023-02-22T06:42:42;113.05;;;20.63;;
69627;SDS011;56850;51.984;5.088;2023-02-22T06:45:09;82.67;;;20.60;;
69627;SDS011;56850;51.984;5.088;2023-02-22T06:47:37;105.88;;;20.70;;
69627;SDS011;56850;51.984;5.088;2023-02-22T06:50:06;101.65;;;21.45;;
69627;SDS011;56850;51.984;5.088;2023-02-22T06:52:42;100.28;;;22.60;;
69627;SDS011;56850;51.984;5.088;2023-02-22T06:55:15;78.30;;;22.05;;
69627;SDS011;56850;51.984;5.088;2023-02-22T06:57:53;52.17;;;19.10;;
69627;SDS011;56850;51.984;5.088;2023-02-22T07:00:21;56.60;;;20.27;;
69627;SDS011;56850;51.984;5.088;2023-02-22T07:02:50;53.10;;;21.25;;
69627;SDS011;56850;51.984;5.088;2023-02-22T07:05:18;70.30;;;22.05;;
69627;SDS011;56850;51.984;5.088;2023-02-22T07:07:47;81.85;;;20.98;;
69627;SDS011;56850;51.984;5.088;2023-02-22T07:10:26;89.57;;;19.83;;
69627;SDS011;56850;51.984;5.088;2023-02-22T07:12:54;84.22;;;19.73;;
69627;SDS011;56850;51.984;5.088;2023-02-22T07:15:22;80.50;;;20.27;;
69627;SDS011;56850;51.984;5.088;2023-02-22T07:17:51;68.03;;;19.30;;
69627;SDS011;56850;51.984;5.088;2023-02-22T07:20:18;57.20;;;20.25;;
69627;SDS011;56850;51.984;5.088;2023-02-22T07:22:46;63.53;;;18.63;;
69627;SDS011;56850;51.984;5.088;2023-02-22T07:25:14;87.95;;;19.70;;
69627;SDS011;56850;51.984;5.088;2023-02-22T07:27:41;64.32;;;18.83;;
69627;SDS011;56850;51.984;5.088;2023-02-22T07:30:19;68.03;;;17.83;;
69627;SDS011;56850;51.984;5.088;2023-02-22T07:32:52;54.75;;;17.00;;
69627;SDS011;56850;51.984;5.088;2023-02-22T07:35:22;56.53;;;17.10;;
69627;SDS011;56850;51.984;5.088;2023-02-22T07:37:51;51.55;;;17.92;;
69627;SDS011;56850;51.984;5.088;2023-02-22T07:40:21;53.33;;;19.45;;
69627;SDS011;56850;51.984;5.088;2023-02-22T07:42:59;56.85;;;18.20;;
69627;SDS011;56850;51.984;5.088;2023-02-22T07:45:32;64.93;;;19.95;;
69627;SDS011;56850;51.984;5.088;2023-02-22T07:48:01;50.07;;;17.87;;
69627;SDS011;56850;51.984;5.088;2023-02-22T07:50:32;44.95;;;18.38;;
69627;SDS011;56850;51.984;5.088;2023-02-22T07:53:00;49.30;;;18.92;;
69627;SDS011;56850;51.984;5.088;2023-02-22T07:55:29;40.42;;;17.60;;
69627;SDS011;56850;51.984;5.088;2023-02-22T07:58:03;43.45;;;17.35;;
69627;SDS011;56850;51.984;5.088;2023-02-22T08:00:33;37.20;;;16.63;;
69627;SDS011;56850;51.984;5.088;2023-02-22T08:03:06;37.05;;;16.58;;
69627;SDS011;56850;51.984;5.088;2023-02-22T08:05:35;34.25;;;16.40;;
69627;SDS011;56850;51.984;5.088;2023-02-22T08:08:03;39.90;;;17.60;;
69627;SDS011;56850;51.984;5.088;2023-02-22T08:10:32;32.90;;;15.50;;
69627;SDS011;56850;51.984;5.088;2023-02-22T08:13:01;35.63;;;16.43;;
69627;SDS011;56850;51.984;5.088;2023-02-22T08:15:29;34.47;;;15.98;;
69627;SDS011;56850;51.984;5.088;2023-02-22T08:17:58;38.25;;;18.55;;
69627;SDS011;56850;51.984;5.088;2023-02-22T08:20:26;38.30;;;16.33;;
69627;SDS011;56850;51.984;5.088;2023-02-22T08:22:54;35.72;;;15.85;;
69627;SDS011;56850;51.984;5.088;2023-02-22T08:25:23;36.27;;;17.03;;
69627;SDS011;56850;51.984;5.088;2023-02-22T08:27:55;35.20;;;16.75;;
69627;SDS011;56850;51.984;5.088;2023-02-22T08:30:25;38.72;;;17.52;;
69627;SDS011;56850;51.984;5.088;2023-02-22T08:32:53;39.05;;;17.58;;
69627;SDS011;56850;51.984;5.088;2023-02-22T08:35:20;35.22;;;15.77;;
69627;SDS011;56850;51.984;5.088;2023-02-22T08:37:49;35.37;;;16.40;;
69627;SDS011;56850;51.984;5.088;2023-02-22T08:40:20;36.35;;;17.20;;
69627;SDS011;56850;51.984;5.088;2023-02-22T08:42:48;38.15;;;17.33;;
69627;SDS011;56850;51.984;5.088;2023-02-22T08:45:16;36.65;;;16.80;;
69627;SDS011;56850;51.984;5.088;2023-02-22T08:47:43;35.70;;;17.35;;
69627;SDS011;56850;51.984;5.088;2023-02-22T08:50:14;39.47;;;18.00;;
69627;SDS011;56850;51.984;5.088;2023-02-22T08:52:44;35.35;;;17.00;;
69627;SDS011;56850;51.984;5.088;2023-02-22T08:55:11;36.30;;;17.77;;
69627;SDS011;56850;51.984;5.088;2023-02-22T08:57:38;34.78;;;16.45;;
69627;SDS011;56850;51.984;5.088;2023-02-22T09:00:05;36.58;;;18.00;;
69627;SDS011;56850;51.984;5.088;2023-02-22T09:02:32;39.97;;;17.83;;
69627;SDS011;56850;51.984;5.088;2023-02-22T09:04:59;33.22;;;15.93;;
69627;SDS011;56850;51.984;5.088;2023-02-22T09:07:26;33.65;;;16.55;;
69627;SDS011;56850;51.984;5.088;2023-02-22T09:09:53;36.80;;;16.55;;
69627;SDS011;56850;51.984;5.088;2023-02-22T09:12:20;42.72;;;18.00;;
69627;SDS011;56850;51.984;5.088;2023-02-22T09:14:47;37.90;;;17.43;;
69627;SDS011;56850;51.984;5.088;2023-02-22T09:17:14;35.20;;;16.85;;
69627;SDS011;56850;51.984;5.088;2023-02-22T09:19:41;38.42;;;17.17;;
69627;SDS011;56850;51.984;5.088;2023-02-22T09:22:08;38.78;;;18.38;;
69627;SDS011;56850;51.984;5.088;2023-02-22T09:24:35;34.38;;;16.58;;
69627;SDS011;56850;51.984;5.088;2023-02-22T09:27:02;36.13;;;16.60;;
69627;SDS011;56850;51.984;5.088;2023-02-22T09:29:29;38.28;;;17.27;;
69627;SDS011;56850;51.984;5.088;2023-02-22T09:31:56;35.30;;;17.20;;
69627;SDS011;56850;51.984;5.088;2023-02-22T09:34:23;38.20;;;18.23;;
69627;SDS011;56850;51.984;5.088;2023-02-22T09:36:55;32.65;;;17.45;;
69627;SDS011;56850;51.984;5.088;2023-02-22T09:39:23;37.23;;;17.00;;
69627;SDS011;56850;51.984;5.088;2023-02-22T09:45:07;35.80;;;17.55;;
69627;SDS011;56850;51.984;5.088;2023-02-22T09:47:44;37.22;;;16.67;;
69627;SDS011;56850;51.984;5.088;2023-02-22T09:50:16;35.85;;;17.35;;
69627;SDS011;56850;51.984;5.088;2023-02-22T09:55:34;34.72;;;17.00;;
69627;SDS011;56850;51.984;5.088;2023-02-22T10:00:46;35.45;;;17.60;;
69627;SDS011;56850;51.984;5.088;2023-02-22T10:06:03;36.13;;;16.50;;
69627;SDS011;56850;51.984;5.088;2023-02-22T10:08:32;35.83;;;17.90;;
69627;SDS011;56850;51.984;5.088;2023-02-22T10:11:05;35.58;;;17.90;;
69627;SDS011;56850;51.984;5.088;2023-02-22T10:13:48;34.47;;;15.98;;
69627;SDS011;56850;51.984;5.088;2023-02-22T10:24:49;34.15;;;17.52;;
69627;SDS011;56850;51.984;5.088;2023-02-22T10:27:31;36.75;;;16.90;;
69627;SDS011;56850;51.984;5.088;2023-02-22T10:30:04;34.90;;;16.38;;
69627;SDS011;56850;51.984;5.088;2023-02-22T10:35:43;36.33;;;16.75;;
69627;SDS011;56850;51.984;5.088;2023-02-22T10:40:43;39.55;;;16.67;;
69627;SDS011;56850;51.984;5.088;2023-02-22T10:43:16;39.65;;;18.27;;
69627;SDS011;56850;51.984;5.088;2023-02-22T10:45:43;36.20;;;18.40;;
69627;SDS011;56850;51.984;5.088;2023-02-22T10:48:14;38.28;;;18.63;;
69627;SDS011;56850;51.984;5.088;2023-02-22T10:50:44;37.63;;;18.10;;
69627;SDS011;56850;51.984;5.088;2023-02-22T10:53:12;36.85;;;17.38;;
69627;SDS011;56850;51.984;5.088;2023-02-22T10:58:58;34.60;;;16.23;;
69627;SDS011;56850;51.984;5.088;2023-02-22T11:03:59;39.53;;;19.17;;
69627;SDS011;56850;51.984;5.088;2023-02-22T11:06:32;39.13;;;17.75;;
69627;SDS011;56850;51.984;5.088;2023-02-22T11:11:36;34.43;;;16.90;;
69627;SDS011;56850;51.984;5.088;2023-02-22T11:14:05;35.95;;;17.27;;
69627;SDS011;56850;51.984;5.088;2023-02-22T11:19:20;37.47;;;18.10;;
69627;SDS011;56850;51.984;5.088;2023-02-22T11:21:50;36.53;;;17.10;;
69627;SDS011;56850;51.984;5.088;2023-02-22T11:24:21;34.67;;;17.10;;
69627;SDS011;56850;51.984;5.088;2023-02-22T11:26:54;40.47;;;18.55;;
69627;SDS011;56850;51.984;5.088;2023-02-22T11:29:32;33.67;;;18.15;;
69627;SDS011;56850;51.984;5.088;2023-02-22T11:32:02;35.80;;;18.40;;
69627;SDS011;56850;51.984;5.088;2023-02-22T11:34:40;39.25;;;18.15;;
69627;SDS011;56850;51.984;5.088;2023-02-22T11:37:17;38.30;;;19.00;;
69627;SDS011;56850;51.984;5.088;2023-02-22T11:40:06;33.13;;;17.15;;
69627;SDS011;56850;51.984;5.088;2023-02-22T11:42:48;32.97;;;16.85;;
69627;SDS011;56850;51.984;5.088;2023-02-22T11:45:30;36.85;;;16.55;;
69627;SDS011;56850;51.984;5.088;2023-02-22T11:47:58;31.77;;;16.85;;
69627;SDS011;56850;51.984;5.088;2023-02-22T11:55:50;33.00;;;17.95;;
69627;SDS011;56850;51.984;5.088;2023-02-22T12:01:14;33.65;;;17.20;;
69627;SDS011;56850;51.984;5.088;2023-02-22T12:06:57;28.30;;;15.77;;
69627;SDS011;56850;51.984;5.088;2023-02-22T12:09:49;28.63;;;15.50;;
69627;SDS011;56850;51.984;5.088;2023-02-22T12:12:32;27.25;;;14.85;;
69627;SDS011;56850;51.984;5.088;2023-02-22T12:18:09;29.17;;;15.63;;
69627;SDS011;56850;51.984;5.088;2023-02-22T12:20:30;25.58;;;14.57;;
69627;SDS011;56850;51.984;5.088;2023-02-22T12:25:44;26.83;;;15.13;;
69627;SDS011;56850;51.984;5.088;2023-02-22T12:31:04;24.07;;;14.67;;
69627;SDS011;56850;51.984;5.088;2023-02-22T12:33:50;26.20;;;14.32;;
69627;SDS011;56850;51.984;5.088;2023-02-22T12:36:33;24.33;;;14.88;;
69627;SDS011;56850;51.984;5.088;2023-02-22T12:39:10;25.02;;;15.02;;
69627;SDS011;56850;51.984;5.088;2023-02-22T12:42:29;31.42;;;15.98;;
69627;SDS011;56850;51.984;5.088;2023-02-22T12:48:18;26.23;;;14.70;;
69627;SDS011;56850;51.984;5.088;2023-02-22T12:50:58;28.83;;;16.00;;
69627;SDS011;56850;51.984;5.088;2023-02-22T12:53:37;26.38;;;16.42;;
69627;SDS011;56850;51.984;5.088;2023-02-22T12:56:20;24.73;;;15.80;;
69627;SDS011;56850;51.984;5.088;2023-02-22T12:59:15;23.50;;;14.37;;
69627;SDS011;56850;51.984;5.088;2023-02-22T13:01:53;24.65;;;14.75;;
69627;SDS011;56850;51.984;5.088;2023-02-22T13:04:24;25.77;;;15.18;;
69627;SDS011;56850;51.984;5.088;2023-02-22T13:06:58;25.58;;;13.55;;
69627;SDS011;56850;51.984;5.088;2023-02-22T13:12:36;25.70;;;15.40;;
69627;SDS011;56850;51.984;5.088;2023-02-22T13:18:05;29.10;;;15.02;;
69627;SDS011;56850;51.984;5.088;2023-02-22T13:26:17;25.63;;;15.33;;
69627;SDS011;56850;51.984;5.088;2023-02-22T13:28:56;23.95;;;15.10;;
69627;SDS011;56850;51.984;5.088;2023-02-22T13:45:06;23.92;;;14.82;;
69627;SDS011;56850;51.984;5.088;2023-02-22T13:53:38;21.63;;;14.20;;
69627;SDS011;56850;51.984;5.088;2023-02-22T13:56:25;23.98;;;14.43;;
69627;SDS011;56850;51.984;5.088;2023-02-22T13:59:00;23.40;;;14.45;;
69627;SDS011;56850;51.984;5.088;2023-02-22T14:01:45;21.35;;;14.02;;
69627;SDS011;56850;51.984;5.088;2023-02-22T14:06:46;24.73;;;13.70;;
69627;SDS011;56850;51.984;5.088;2023-02-22T14:09:15;23.70;;;14.82;;
69627;SDS011;56850;51.984;5.088;2023-02-22T14:11:46;22.02;;;15.68;;
69627;SDS011;56850;51.984;5.088;2023-02-22T14:14:14;23.70;;;15.18;;
69627;SDS011;56850;51.984;5.088;2023-02-22T14:16:43;25.02;;;16.55;;
69627;SDS011;56850;51.984;5.088;2023-02-22T14:19:14;22.17;;;15.20;;
69627;SDS011;56850;51.984;5.088;2023-02-22T14:21:55;23.15;;;14.48;;
69627;SDS011;56850;51.984;5.088;2023-02-22T14:24:49;23.77;;;14.27;;
69627;SDS011;56850;51.984;5.088;2023-02-22T14:27:16;25.02;;;15.38;;
69627;SDS011;56850;51.984;5.088;2023-02-22T14:29:50;23.40;;;16.38;;
69627;SDS011;56850;51.984;5.088;2023-02-22T14:32:29;23.20;;;16.37;;
69627;SDS011;56850;51.984;5.088;2023-02-22T14:35:04;24.52;;;15.52;;
69627;SDS011;56850;51.984;5.088;2023-02-22T14:37:47;21.00;;;14.85;;
69627;SDS011;56850;51.984;5.088;2023-02-22T14:40:29;23.48;;;16.00;;
69627;SDS011;56850;51.984;5.088;2023-02-22T14:45:28;25.37;;;15.90;;
69627;SDS011;56850;51.984;5.088;2023-02-22T14:48:16;24.45;;;15.45;;
69627;SDS011;56850;51.984;5.088;2023-02-22T14:50:56;24.88;;;16.20;;
69627;SDS011;56850;51.984;5.088;2023-02-22T14:53:51;25.45;;;16.45;;
69627;SDS011;56850;51.984;5.088;2023-02-22T15:00:00;25.47;;;16.53;;
69627;SDS011;56850;51.984;5.088;2023-02-22T15:03:10;24.95;;;16.67;;
69627;SDS011;56850;51.984;5.088;2023-02-22T15:05:54;23.65;;;16.52;;
69627;SDS011;56850;51.984;5.088;2023-02-22T15:08:26;27.17;;;18.00;;
69627;SDS011;56850;51.984;5.088;2023-02-22T15:10:53;27.00;;;17.48;;
69627;SDS011;56850;51.984;5.088;2023-02-22T15:13:22;26.70;;;16.97;;
69627;SDS011;56850;51.984;5.088;2023-02-22T15:16:00;27.80;;;18.13;;
69627;SDS011;56850;51.984;5.088;2023-02-22T15:18:31;30.73;;;18.45;;
69627;SDS011;56850;51.984;5.088;2023-02-22T15:21:03;29.15;;;17.85;;
69627;SDS011;56850;51.984;5.088;2023-02-22T15:24:02;25.58;;;18.17;;
69627;SDS011;56850;51.984;5.088;2023-02-22T15:26:36;26.90;;;18.03;;
69627;SDS011;56850;51.984;5.088;2023-02-22T15:31:52;29.25;;;18.02;;
69627;SDS011;56850;51.984;5.088;2023-02-22T15:37:11;28.30;;;17.92;;
69627;SDS011;56850;51.984;5.088;2023-02-22T15:39:51;30.70;;;18.67;;
69627;SDS011;56850;51.984;5.088;2023-02-22T15:42:25;26.98;;;18.65;;
69627;SDS011;56850;51.984;5.088;2023-02-22T15:44:55;27.30;;;18.38;;
69627;SDS011;56850;51.984;5.088;2023-02-22T15:47:24;29.65;;;18.67;;
69627;SDS011;56850;51.984;5.088;2023-02-22T15:55:59;25.45;;;17.98;;
69627;SDS011;56850;51.984;5.088;2023-02-22T15:58:30;27.58;;;18.83;;
69627;SDS011;56850;51.984;5.088;2023-02-22T16:01:01;26.73;;;18.80;;
69627;SDS011;56850;51.984;5.088;2023-02-22T16:06:22;28.90;;;19.33;;
69627;SDS011;56850;51.984;5.088;2023-02-22T16:09:06;29.20;;;19.55;;
69627;SDS011;56850;51.984;5.088;2023-02-22T16:11:39;29.50;;;20.33;;
69627;SDS011;56850;51.984;5.088;2023-02-22T16:14:39;28.38;;;20.02;;
69627;SDS011;56850;51.984;5.088;2023-02-22T16:22:48;32.30;;;20.88;;
69627;SDS011;56850;51.984;5.088;2023-02-22T16:27:48;32.55;;;21.27;;
69627;SDS011;56850;51.984;5.088;2023-02-22T16:32:52;40.13;;;24.90;;
69627;SDS011;56850;51.984;5.088;2023-02-22T16:35:22;38.88;;;25.55;;
69627;SDS011;56850;51.984;5.088;2023-02-22T16:37:58;46.70;;;29.75;;
69627;SDS011;56850;51.984;5.088;2023-02-22T16:40:34;43.75;;;27.27;;
69627;SDS011;56850;51.984;5.088;2023-02-22T16:43:13;45.17;;;27.17;;
69627;SDS011;56850;51.984;5.088;2023-02-22T16:45:42;43.37;;;30.60;;
69627;SDS011;56850;51.984;5.088;2023-02-22T16:48:19;45.25;;;30.45;;
69627;SDS011;56850;51.984;5.088;2023-02-22T16:50:56;44.75;;;30.60;;
69627;SDS011;56850;51.984;5.088;2023-02-22T16:53:31;47.80;;;30.90;;
69627;SDS011;56850;51.984;5.088;2023-02-22T16:56:03;47.15;;;31.80;;
69627;SDS011;56850;51.984;5.088;2023-02-22T16:58:34;47.17;;;30.57;;
69627;SDS011;56850;51.984;5.088;2023-02-22T17:01:04;49.88;;;31.20;;
69627;SDS011;56850;51.984;5.088;2023-02-22T17:03:31;50.55;;;32.88;;
69627;SDS011;56850;51.984;5.088;2023-02-22T17:05:57;51.45;;;33.33;;
69627;SDS011;56850;51.984;5.088;2023-02-22T17:08:24;53.28;;;34.75;;
69627;SDS011;56850;51.984;5.088;2023-02-22T17:10:51;57.10;;;33.60;;
69627;SDS011;56850;51.984;5.088;2023-02-22T17:13:22;53.97;;;33.45;;
69627;SDS011;56850;51.984;5.088;2023-02-22T17:15:52;48.00;;;33.30;;
69627;SDS011;56850;51.984;5.088;2023-02-22T17:18:23;46.70;;;32.67;;
69627;SDS011;56850;51.984;5.088;2023-02-22T17:20:53;58.42;;;36.03;;
69627;SDS011;56850;51.984;5.088;2023-02-22T17:23:23;52.83;;;34.33;;
69627;SDS011;56850;51.984;5.088;2023-02-22T17:25:54;58.15;;;35.72;;